Bearcreek, Montana
Current Conditions -  °F | °C
As of 11:35 AM on Sunday 23 Nov 2014 (Local Time) from KPOY Reporting Station
Scattered Clouds Scattered Clouds  
Wind Chill: 22°   Ceiling: Unl
Heat Index: 32°   Visibility: 10mi
Dew Point: 16°   Wind: 15mph
Humidity: 51%   Direction: 340°NNW
Pressure: 29.89"   Gusts: NA
Location:  45.16°N, 109.16°W
Report Text: KPOY 231835Z AUTO 34013KT 10SM SCT090 SCT120 00/M09 A2989 RMK AO2
Loading
Personal Weather Stations






























Interactive Weather Map New forecast layout! Learn more

10-Day Weather Forecast

Advertisements
Track Severe Weather on mobile